createdAt,value
2023-01-27T00:01:10.479Z,-2.42
2023-01-27T00:03:38.102Z,-2.48
2023-01-27T00:06:06.696Z,-2.45
2023-01-27T00:08:34.618Z,-2.44
2023-01-27T00:11:21.029Z,-2.56
2023-01-27T00:13:48.735Z,-2.54
2023-01-27T00:16:16.293Z,-2.71
2023-01-27T00:18:44.138Z,-2.68
2023-01-27T00:21:30.467Z,-2.74
2023-01-27T00:24:16.557Z,-2.92
2023-01-27T00:26:44.133Z,-2.83
2023-01-27T00:29:13.160Z,-2.81
2023-01-27T00:31:59.151Z,-2.73
2023-01-27T00:34:26.839Z,-2.68
2023-01-27T00:36:54.253Z,-2.75
2023-01-27T00:39:21.821Z,-2.68
2023-01-27T00:41:49.342Z,-2.61
2023-01-27T00:44:17.455Z,-2.59
2023-01-27T00:46:45.088Z,-2.68
2023-01-27T00:49:13.594Z,-2.63
2023-01-27T00:51:41.911Z,-2.54
2023-01-27T00:54:09.731Z,-2.54
2023-01-27T00:56:38.202Z,-2.48
2023-01-27T00:59:06.330Z,-2.46
2023-01-27T01:01:34.604Z,-2.48
2023-01-27T01:04:02.568Z,-2.47
2023-01-27T01:06:30.502Z,-2.46
2023-01-27T01:08:58.671Z,-2.48
2023-01-27T01:11:26.498Z,-2.50
2023-01-27T01:13:56.303Z,-2.44
2023-01-27T01:16:25.534Z,-2.48
2023-01-27T01:18:53.779Z,-2.45
2023-01-27T01:21:21.878Z,-2.58
2023-01-27T01:23:49.492Z,-2.57
2023-01-27T01:26:18.025Z,-2.59
2023-01-27T01:28:46.642Z,-2.58
2023-01-27T01:31:16.947Z,-2.56
2023-01-27T01:33:45.170Z,-2.50
2023-01-27T01:36:15.536Z,-2.47
2023-01-27T01:38:43.458Z,-2.51
2023-01-27T01:41:19.774Z,-2.49
2023-01-27T01:43:48.635Z,-2.50
2023-01-27T01:46:16.586Z,-2.57
2023-01-27T01:48:57.374Z,-2.55
2023-01-27T01:51:45.222Z,-2.48
2023-01-27T01:54:21.781Z,-2.44
2023-01-27T01:56:58.225Z,-2.43
2023-01-27T01:59:33.924Z,-2.40
2023-01-27T02:02:06.987Z,-2.47
2023-01-27T02:05:04.643Z,-2.43
2023-01-27T02:07:40.201Z,-2.45
2023-01-27T02:10:08.011Z,-2.48
2023-01-27T02:12:36.695Z,-2.48
2023-01-27T02:15:08.908Z,-2.45
2023-01-27T02:17:36.771Z,-2.44
2023-01-27T02:20:28.813Z,-2.43
2023-01-27T02:23:04.259Z,-2.44
2023-01-27T02:25:34.642Z,-2.54
2023-01-27T02:28:07.795Z,-2.56
2023-01-27T02:30:35.823Z,-2.58
2023-01-27T02:33:16.052Z,-2.63
2023-01-27T02:36:17.860Z,-2.57
2023-01-27T02:38:52.670Z,-2.51
2023-01-27T02:41:35.399Z,-2.52
2023-01-27T02:44:04.128Z,-2.52
2023-01-27T02:46:32.813Z,-2.47
2023-01-27T02:49:01.750Z,-2.50
2023-01-27T02:51:30.115Z,-2.56
2023-01-27T02:53:59.572Z,-2.49
2023-01-27T02:56:27.290Z,-2.47
2023-01-27T02:58:57.224Z,-2.46
2023-01-27T03:01:32.891Z,-2.46
2023-01-27T03:04:02.428Z,-2.44
2023-01-27T03:06:30.113Z,-2.43
2023-01-27T03:08:57.783Z,-2.41
2023-01-27T03:11:43.997Z,-2.45
2023-01-27T03:14:11.673Z,-2.43
2023-01-27T03:16:59.139Z,-2.43
2023-01-27T03:19:29.361Z,-2.43
2023-01-27T03:21:56.960Z,-2.43
2023-01-27T03:24:26.548Z,-2.43
2023-01-27T03:26:58.043Z,-2.44
2023-01-27T03:29:56.024Z,-2.45
2023-01-27T03:32:25.704Z,-2.41
2023-01-27T03:35:15.525Z,-2.40
2023-01-27T03:38:04.311Z,-2.36
2023-01-27T03:40:50.418Z,-2.40
2023-01-27T03:43:37.008Z,-2.42
2023-01-27T03:46:20.430Z,-2.40
2023-01-27T03:48:56.775Z,-2.45
2023-01-27T03:51:26.645Z,-2.48
2023-01-27T03:53:54.469Z,-2.47
2023-01-27T03:56:22.785Z,-2.43
2023-01-27T03:58:50.944Z,-2.49
2023-01-27T04:01:20.005Z,-2.48
2023-01-27T04:04:07.147Z,-2.48
2023-01-27T04:06:58.434Z,-2.47
2023-01-27T04:09:29.089Z,-2.54
2023-01-27T04:12:00.001Z,-2.55
2023-01-27T04:14:32.174Z,-2.64
2023-01-27T04:17:04.064Z,-2.56
2023-01-27T04:19:31.881Z,-2.53
2023-01-27T04:22:00.829Z,-2.55
2023-01-27T04:24:28.753Z,-2.58
2023-01-27T04:27:02.016Z,-2.56
2023-01-27T04:29:32.155Z,-2.55
2023-01-27T04:31:59.609Z,-2.54
2023-01-27T04:34:28.057Z,-2.57
2023-01-27T04:36:56.763Z,-2.49
2023-01-27T04:39:24.659Z,-2.53
2023-01-27T04:41:52.718Z,-2.52
2023-01-27T04:44:20.470Z,-2.54
2023-01-27T04:46:48.938Z,-2.47
2023-01-27T04:49:17.395Z,-2.49
2023-01-27T04:51:46.296Z,-2.50
2023-01-27T04:54:16.208Z,-2.50
2023-01-27T04:56:59.003Z,-2.51
2023-01-27T04:59:27.659Z,-2.55
2023-01-27T05:01:55.441Z,-2.52
2023-01-27T05:04:23.122Z,-2.51
2023-01-27T05:06:50.608Z,-2.46
2023-01-27T05:09:18.199Z,-2.51
2023-01-27T05:11:45.678Z,-2.49
2023-01-27T05:14:14.275Z,-2.46
2023-01-27T05:16:41.896Z,-2.43
2023-01-27T05:19:09.936Z,-2.47
2023-01-27T05:21:37.554Z,-2.46
2023-01-27T05:24:05.233Z,-2.54
2023-01-27T05:26:32.746Z,-2.45
2023-01-27T05:29:00.355Z,-2.43
2023-01-27T05:31:31.856Z,-2.47
2023-01-27T05:34:01.414Z,-2.44
2023-01-27T05:36:30.098Z,-2.45
2023-01-27T05:38:59.323Z,-2.39
2023-01-27T05:41:31.115Z,-2.37
2023-01-27T05:43:59.005Z,-2.39
2023-01-27T05:46:29.491Z,-2.33
2023-01-27T05:49:00.663Z,-2.37
2023-01-27T05:51:41.240Z,-2.41
2023-01-27T05:54:09.795Z,-2.42
2023-01-27T05:56:37.489Z,-2.40
2023-01-27T05:59:05.152Z,-2.42
2023-01-27T06:01:34.796Z,-2.44
2023-01-27T06:04:02.503Z,-2.40
2023-01-27T06:06:31.957Z,-2.31
2023-01-27T06:09:00.216Z,-2.33
2023-01-27T06:11:27.812Z,-2.33
2023-01-27T06:13:55.640Z,-2.37
2023-01-27T06:16:23.713Z,-2.44
2023-01-27T06:18:51.335Z,-2.43
2023-01-27T06:21:20.663Z,-2.50
2023-01-27T06:23:48.763Z,-2.53
2023-01-27T06:26:19.255Z,-2.47
2023-01-27T06:28:47.211Z,-2.52
2023-01-27T06:31:20.092Z,-2.54
2023-01-27T06:33:48.085Z,-2.51
2023-01-27T06:36:18.268Z,-2.49
2023-01-27T06:38:46.398Z,-2.48
2023-01-27T06:41:14.063Z,-2.48
2023-01-27T06:43:41.864Z,-2.39
2023-01-27T06:46:09.356Z,-2.48
2023-01-27T06:48:38.169Z,-2.46
2023-01-27T06:51:05.837Z,-2.46
2023-01-27T06:53:34.998Z,-2.45
2023-01-27T06:56:02.633Z,-2.43
2023-01-27T06:58:30.623Z,-2.48
2023-01-27T07:00:58.127Z,-2.49
2023-01-27T07:03:26.573Z,-2.56
2023-01-27T07:05:54.103Z,-2.53
2023-01-27T07:08:21.688Z,-2.50
2023-01-27T07:10:49.185Z,-2.43
2023-01-27T07:13:16.814Z,-2.39
2023-01-27T07:15:44.316Z,-2.39
2023-01-27T07:18:14.377Z,-2.39
2023-01-27T07:20:42.481Z,-2.49
2023-01-27T07:23:10.928Z,-2.47
2023-01-27T07:25:39.499Z,-2.39
2023-01-27T07:28:07.256Z,-2.42
2023-01-27T07:30:35.206Z,-2.78
2023-01-27T07:33:07.245Z,-2.61
2023-01-27T07:35:36.831Z,-2.75
2023-01-27T07:38:05.470Z,-2.79
2023-01-27T07:40:33.616Z,-2.79
2023-01-27T07:43:01.951Z,-2.76
2023-01-27T07:45:30.636Z,-2.81
2023-01-27T07:48:07.290Z,-2.79
2023-01-27T07:50:36.006Z,-2.75
2023-01-27T07:53:04.866Z,-2.82
2023-01-27T07:55:33.739Z,-2.78
2023-01-27T07:58:01.631Z,-2.75
2023-01-27T08:00:29.616Z,-2.77
2023-01-27T08:02:58.868Z,-2.83
2023-01-27T08:05:27.540Z,-2.88
2023-01-27T08:07:58.624Z,-2.86
2023-01-27T08:10:26.563Z,-2.81
2023-01-27T08:12:54.191Z,-2.84
2023-01-27T08:15:22.391Z,-2.84
2023-01-27T08:17:56.981Z,-2.66
2023-01-27T08:20:26.758Z,-2.43
2023-01-27T08:22:54.594Z,-2.42
2023-01-27T08:25:22.954Z,-2.52
2023-01-27T08:27:55.368Z,-2.55
2023-01-27T08:30:23.419Z,-2.56
2023-01-27T08:32:50.932Z,-2.47
2023-01-27T08:35:18.658Z,-2.42
2023-01-27T08:37:48.774Z,-2.36
2023-01-27T08:40:16.974Z,-2.39
2023-01-27T08:42:44.484Z,-2.31
2023-01-27T08:45:12.320Z,-2.37
2023-01-27T08:47:39.825Z,-2.54
2023-01-27T08:50:08.643Z,-2.50
2023-01-27T08:52:36.160Z,-2.34
2023-01-27T08:55:03.963Z,-2.21
2023-01-27T08:57:32.759Z,-2.15
2023-01-27T09:00:00.633Z,-2.12
2023-01-27T09:02:28.299Z,-2.10
2023-01-27T09:04:55.831Z,-2.23
2023-01-27T09:07:23.477Z,-2.28
2023-01-27T09:09:56.033Z,-2.21
2023-01-27T09:12:31.641Z,-2.21
2023-01-27T09:14:59.186Z,-2.28
2023-01-27T09:17:27.314Z,-2.34
2023-01-27T09:19:55.054Z,-2.36
2023-01-27T09:22:22.614Z,-2.54
2023-01-27T09:24:50.275Z,-2.52
2023-01-27T09:27:19.235Z,-2.50
2023-01-27T09:29:52.603Z,-2.54
2023-01-27T09:32:20.048Z,-2.45
2023-01-27T09:34:47.648Z,-2.54
2023-01-27T09:37:15.234Z,-2.72
2023-01-27T09:39:59.738Z,-2.74
2023-01-27T09:42:42.351Z,-2.63
2023-01-27T09:45:24.611Z,-2.75
2023-01-27T09:48:16.455Z,-2.64
2023-01-27T09:50:57.901Z,-2.58
2023-01-27T09:53:46.683Z,-2.64
2023-01-27T09:56:23.224Z,-2.65
2023-01-27T09:59:06.812Z,-2.54
2023-01-27T10:01:59.978Z,-2.33
2023-01-27T10:04:50.970Z,-2.22
2023-01-27T10:07:37.093Z,-2.26
2023-01-27T10:10:22.852Z,-2.28
2023-01-27T10:12:56.044Z,-2.49
2023-01-27T10:15:39.857Z,-2.32
2023-01-27T10:18:27.284Z,-2.17
2023-01-27T10:21:16.445Z,-2.23
2023-01-27T10:24:10.123Z,-2.05
2023-01-27T10:26:49.722Z,-2.14
2023-01-27T10:29:28.623Z,-2.28
2023-01-27T10:32:13.883Z,-2.20
2023-01-27T10:34:49.518Z,-2.06
2023-01-27T10:37:35.455Z,-1.98
2023-01-27T10:40:05.665Z,-1.97
2023-01-27T10:42:57.644Z,-1.92
2023-01-27T10:45:29.298Z,-1.93
2023-01-27T10:48:36.230Z,-1.92
2023-01-27T10:51:11.730Z,-1.94
2023-01-27T10:58:00.265Z,-1.67
2023-01-27T11:01:12.939Z,-1.45
2023-01-27T11:03:41.404Z,-1.30
2023-01-27T11:06:15.331Z,-1.24
2023-01-27T11:08:48.031Z,-1.15
2023-01-27T11:11:38.688Z,-1.17
2023-01-27T11:14:16.141Z,-1.26
2023-01-27T11:17:01.866Z,-1.14
2023-01-27T11:19:37.839Z,-1.11
2023-01-27T11:22:35.780Z,-1.17
2023-01-27T11:25:32.061Z,-1.21
2023-01-27T11:28:18.676Z,-1.18
2023-01-27T11:31:08.965Z,-1.09
2023-01-27T11:33:45.885Z,-1.41
2023-01-27T11:36:13.361Z,-1.63
2023-01-27T11:38:40.872Z,-1.52
2023-01-27T11:41:08.647Z,-1.50
2023-01-27T11:43:38.472Z,-1.52
2023-01-27T11:46:11.923Z,-1.51
2023-01-27T11:48:44.322Z,-1.40
2023-01-27T11:51:20.932Z,-1.50
2023-01-27T11:54:24.049Z,-1.43
2023-01-27T11:56:51.722Z,-1.50
2023-01-27T11:59:31.392Z,-1.58
2023-01-27T12:02:11.473Z,-1.51
2023-01-27T12:04:39.006Z,-1.52
2023-01-27T12:07:16.388Z,-1.57
2023-01-27T12:09:43.912Z,-1.53
2023-01-27T12:12:18.540Z,-1.44
2023-01-27T12:14:55.039Z,-1.53
2023-01-27T12:17:35.245Z,-1.45
2023-01-27T12:20:07.662Z,-1.42
2023-01-27T12:22:39.367Z,-1.51
2023-01-27T12:25:28.152Z,-1.50
2023-01-27T12:27:59.787Z,-1.42
2023-01-27T12:30:30.794Z,-1.41
2023-01-27T12:32:59.727Z,-1.41
2023-01-27T12:35:35.715Z,-1.25
2023-01-27T12:38:20.306Z,-1.24
2023-01-27T12:40:50.641Z,-1.31
2023-01-27T12:43:20.310Z,-1.40
2023-01-27T12:46:05.213Z,-1.68
2023-01-27T12:48:36.722Z,-1.43
2023-01-27T12:51:16.206Z,-1.38
2023-01-27T12:53:44.381Z,-1.28
2023-01-27T12:56:23.888Z,-1.24
2023-01-27T12:59:00.842Z,-1.19
2023-01-27T13:01:31.472Z,-1.35
2023-01-27T13:04:29.062Z,-1.43
2023-01-27T13:07:02.415Z,-1.48
2023-01-27T13:09:40.988Z,-1.64
2023-01-27T13:12:24.289Z,-1.45
2023-01-27T13:14:55.768Z,-1.43
2023-01-27T13:17:30.663Z,-1.32
2023-01-27T13:20:40.175Z,-1.36
2023-01-27T13:23:11.383Z,-1.36
2023-01-27T13:26:10.175Z,-1.50
2023-01-27T13:28:52.148Z,-1.38
2023-01-27T13:31:53.915Z,-1.50
2023-01-27T13:34:48.092Z,-1.57
2023-01-27T13:37:20.739Z,-1.72
2023-01-27T13:40:02.191Z,-1.81
2023-01-27T13:42:49.525Z,-1.69
2023-01-27T13:45:21.738Z,-1.67
2023-01-27T13:48:23.027Z,-1.65
2023-01-27T13:51:20.536Z,-1.41
2023-01-27T13:53:57.293Z,-1.39
2023-01-27T13:56:49.455Z,-1.33
2023-01-27T13:59:54.683Z,-1.36
2023-01-27T14:02:36.327Z,-1.36
2023-01-27T14:05:23.853Z,-1.49
2023-01-27T14:08:13.401Z,-1.63
2023-01-27T14:10:49.122Z,-1.64
2023-01-27T14:13:35.999Z,-1.68
2023-01-27T14:16:34.710Z,-1.56
2023-01-27T14:19:40.804Z,-1.69
2023-01-27T14:22:40.088Z,-1.62
2023-01-27T14:25:17.523Z,-1.62
2023-01-27T14:28:01.294Z,-1.51
2023-01-27T14:30:45.245Z,-1.53
2023-01-27T14:33:18.378Z,-1.45
2023-01-27T14:35:56.150Z,-1.45
2023-01-27T14:38:34.183Z,-1.43
2023-01-27T14:41:18.288Z,-1.41
2023-01-27T14:44:16.546Z,-1.41
2023-01-27T14:47:13.283Z,-1.39
2023-01-27T14:50:06.415Z,-1.45
2023-01-27T14:52:46.710Z,-1.48
2023-01-27T14:55:44.701Z,-1.51
2023-01-27T14:58:59.641Z,-1.40
2023-01-27T15:01:49.619Z,-1.42
2023-01-27T15:04:35.988Z,-1.40
2023-01-27T15:07:03.841Z,-1.51
2023-01-27T15:09:40.299Z,-1.37
2023-01-27T15:12:31.504Z,-1.40
2023-01-27T15:15:33.932Z,-1.36
2023-01-27T15:18:10.204Z,-1.39
2023-01-27T15:21:05.198Z,-1.34
2023-01-27T15:23:56.103Z,-1.28
2023-01-27T15:26:27.080Z,-1.20
2023-01-27T15:28:55.512Z,-1.23
2023-01-27T15:31:26.458Z,-1.21
2023-01-27T15:34:03.343Z,-1.29
2023-01-27T15:36:37.364Z,-1.18
2023-01-27T15:39:10.846Z,-1.22
2023-01-27T15:41:57.103Z,-1.20
2023-01-27T15:44:24.754Z,-1.22
2023-01-27T15:46:55.112Z,-1.12
2023-01-27T15:49:27.894Z,-1.16
2023-01-27T15:52:11.803Z,-1.18
2023-01-27T15:54:41.870Z,-1.20
2023-01-27T15:57:42.893Z,-1.17
2023-01-27T16:00:31.236Z,-1.13
2023-01-27T16:03:04.671Z,-1.10
2023-01-27T16:05:41.863Z,-1.07
2023-01-27T16:08:17.262Z,-1.09
2023-01-27T16:10:45.543Z,-1.06
2023-01-27T16:13:35.415Z,-1.05
2023-01-27T16:16:18.123Z,-1.06
2023-01-27T16:18:57.589Z,-1.08
2023-01-27T16:21:34.784Z,-1.08
2023-01-27T16:24:13.769Z,-1.11
2023-01-27T16:26:51.905Z,-1.08
2023-01-27T16:29:26.963Z,-1.05
2023-01-27T16:32:01.212Z,-1.06
2023-01-27T16:34:36.160Z,-1.02
2023-01-27T16:37:15.110Z,-1.03
2023-01-27T16:39:50.593Z,-0.97
2023-01-27T16:42:18.290Z,-1.02
2023-01-27T16:44:50.131Z,-1.01
2023-01-27T16:47:26.417Z,-1.02
2023-01-27T16:49:56.497Z,-1.04
2023-01-27T16:52:41.365Z,-1.00
2023-01-27T16:55:24.802Z,-1.06
2023-01-27T16:57:54.683Z,-1.13
2023-01-27T17:00:26.320Z,-1.16
2023-01-27T17:02:57.489Z,-1.22
2023-01-27T17:05:26.054Z,-1.18
2023-01-27T17:08:19.061Z,-1.38
2023-01-27T17:10:56.673Z,-1.47
2023-01-27T17:13:30.505Z,-1.49
2023-01-27T17:16:00.359Z,-1.49
2023-01-27T17:18:30.098Z,-1.49
2023-01-27T17:21:00.495Z,-1.46
2023-01-27T17:23:36.121Z,-1.47
2023-01-27T17:26:14.836Z,-1.46
2023-01-27T17:28:45.771Z,-1.47
2023-01-27T17:31:20.356Z,-1.51
2023-01-27T17:33:50.157Z,-1.52
2023-01-27T17:36:17.779Z,-1.51
2023-01-27T17:38:50.881Z,-1.55
2023-01-27T17:41:36.277Z,-1.58
2023-01-27T17:44:11.666Z,-1.63
2023-01-27T17:46:40.745Z,-1.60
2023-01-27T17:49:18.742Z,-1.60
2023-01-27T17:51:51.385Z,-1.59
2023-01-27T17:54:35.489Z,-1.62
2023-01-27T17:57:22.195Z,-1.58
2023-01-27T18:00:04.708Z,-1.58
2023-01-27T18:02:54.554Z,-1.60
2023-01-27T18:05:26.710Z,-1.58
2023-01-27T18:07:54.975Z,-1.62
2023-01-27T18:10:39.654Z,-1.67
2023-01-27T18:13:16.153Z,-1.68
2023-01-27T18:15:52.203Z,-1.70
2023-01-27T18:18:20.020Z,-1.72
2023-01-27T18:20:59.805Z,-1.71
2023-01-27T18:23:35.904Z,-1.72
2023-01-27T18:26:22.050Z,-1.74
2023-01-27T18:28:54.795Z,-1.68
2023-01-27T18:31:22.401Z,-1.76
2023-01-27T18:33:58.682Z,-1.77
2023-01-27T18:36:33.484Z,-1.75
2023-01-27T18:39:02.841Z,-1.73
2023-01-27T18:41:32.984Z,-1.75
2023-01-27T18:44:01.302Z,-1.75
2023-01-27T18:46:28.777Z,-1.74
2023-01-27T18:48:56.341Z,-1.72
2023-01-27T18:51:23.891Z,-1.77
2023-01-27T18:53:51.390Z,-1.71
2023-01-27T18:56:19.364Z,-1.79
2023-01-27T18:58:46.934Z,-1.77
2023-01-27T19:01:21.811Z,-1.77
2023-01-27T19:03:52.299Z,-1.79
2023-01-27T19:06:21.042Z,-1.75
2023-01-27T19:08:51.263Z,-1.75
2023-01-27T19:11:18.853Z,-1.74
2023-01-27T19:13:46.594Z,-1.71
2023-01-27T19:16:16.868Z,-1.65
2023-01-27T19:18:45.050Z,-1.77
2023-01-27T19:21:16.474Z,-1.75
2023-01-27T19:23:49.663Z,-1.77
2023-01-27T19:26:19.768Z,-1.78
2023-01-27T19:28:56.392Z,-1.70
2023-01-27T19:31:24.226Z,-1.71
2023-01-27T19:33:51.826Z,-1.71
2023-01-27T19:36:28.209Z,-1.78
2023-01-27T19:39:02.623Z,-1.72
2023-01-27T19:41:30.310Z,-1.74
2023-01-27T19:43:57.863Z,-1.75
2023-01-27T19:46:25.804Z,-1.76
2023-01-27T19:48:53.287Z,-1.76
2023-01-27T19:51:20.864Z,-1.69
2023-01-27T19:53:48.387Z,-1.72
2023-01-27T19:56:19.061Z,-1.78
2023-01-27T19:58:51.613Z,-1.74
2023-01-27T20:01:24.959Z,-1.70
2023-01-27T20:03:54.058Z,-1.70
2023-01-27T20:06:24.325Z,-1.68
2023-01-27T20:08:56.861Z,-1.65
2023-01-27T20:11:32.042Z,-1.68
2023-01-27T20:14:00.689Z,-1.68
2023-01-27T20:16:29.392Z,-1.64
2023-01-27T20:18:57.174Z,-1.64
2023-01-27T20:21:27.632Z,-1.62
2023-01-27T20:23:55.222Z,-1.63
2023-01-27T20:26:23.154Z,-1.59
2023-01-27T20:28:50.821Z,-1.54
2023-01-27T20:31:22.722Z,-1.58
2023-01-27T20:33:50.560Z,-1.58
2023-01-27T20:36:20.713Z,-1.60
2023-01-27T20:38:48.649Z,-1.66
2023-01-27T20:41:20.036Z,-1.59
2023-01-27T20:43:47.756Z,-1.57
2023-01-27T20:46:17.460Z,-1.65
2023-01-27T20:48:45.116Z,-1.59
2023-01-27T20:51:15.323Z,-1.60
2023-01-27T20:53:47.812Z,-1.60
2023-01-27T20:56:17.875Z,-1.54
2023-01-27T20:58:46.324Z,-1.57
2023-01-27T21:01:19.393Z,-1.62
2023-01-27T21:03:48.068Z,-1.56
2023-01-27T21:06:16.433Z,-1.62
2023-01-27T21:08:44.016Z,-1.57
2023-01-27T21:11:13.160Z,-1.57
2023-01-27T21:13:40.858Z,-1.62
2023-01-27T21:16:08.608Z,-1.64
2023-01-27T21:18:36.916Z,-1.64
2023-01-27T21:21:05.320Z,-1.66
2023-01-27T21:23:34.553Z,-1.64
2023-01-27T21:26:09.556Z,-1.67
2023-01-27T21:28:37.192Z,-1.61
2023-01-27T21:31:09.386Z,-1.67
2023-01-27T21:33:39.043Z,-1.63
2023-01-27T21:36:10.303Z,-1.65
2023-01-27T21:38:39.082Z,-1.68
2023-01-27T21:41:35.043Z,-1.64
2023-01-27T21:44:21.429Z,-1.58
2023-01-27T21:46:49.508Z,-1.60
2023-01-27T21:49:17.013Z,-1.64
2023-01-27T21:51:44.504Z,-1.64
2023-01-27T21:54:12.005Z,-1.66
2023-01-27T21:56:39.492Z,-1.63
2023-01-27T21:59:07.911Z,-1.57
2023-01-27T22:01:35.674Z,-1.46
2023-01-27T22:04:04.392Z,-1.50
2023-01-27T22:06:32.698Z,-1.54
2023-01-27T22:09:00.123Z,-1.53
2023-01-27T22:11:27.616Z,-1.57
2023-01-27T22:13:55.074Z,-1.58
2023-01-27T22:16:23.240Z,-1.52
2023-01-27T22:18:50.867Z,-1.62
2023-01-27T22:21:18.340Z,-1.55
2023-01-27T22:23:46.759Z,-1.51
2023-01-27T22:26:14.259Z,-1.60
2023-01-27T22:28:43.834Z,-1.56
2023-01-27T22:31:11.304Z,-1.57
2023-01-27T22:33:38.770Z,-1.58
2023-01-27T22:36:07.435Z,-1.58
2023-01-27T22:38:39.020Z,-1.60
2023-01-27T22:41:06.685Z,-1.60
2023-01-27T22:43:34.119Z,-1.60
2023-01-27T22:46:03.243Z,-1.64
2023-01-27T22:48:31.404Z,-1.60
2023-01-27T22:51:03.990Z,-1.60
2023-01-27T22:53:31.898Z,-1.64
2023-01-27T22:56:01.264Z,-1.60
2023-01-27T22:58:29.793Z,-1.62
2023-01-27T23:00:57.601Z,-1.57
2023-01-27T23:03:25.660Z,-1.58
2023-01-27T23:05:53.164Z,-1.54
2023-01-27T23:08:20.956Z,-1.56
2023-01-27T23:10:48.971Z,-1.56
2023-01-27T23:13:16.703Z,-1.56
2023-01-27T23:15:44.338Z,-1.54
2023-01-27T23:18:11.872Z,-1.55
2023-01-27T23:20:41.138Z,-1.53
2023-01-27T23:23:09.983Z,-1.58
2023-01-27T23:25:45.241Z,-1.51
2023-01-27T23:28:19.498Z,-1.50
2023-01-27T23:30:49.228Z,-1.51
2023-01-27T23:33:21.673Z,-1.41
2023-01-27T23:35:56.486Z,-1.48
2023-01-27T23:38:32.656Z,-1.51
2023-01-27T23:41:06.756Z,-1.45
2023-01-27T23:43:34.742Z,-1.44
2023-01-27T23:46:02.275Z,-1.38
2023-01-27T23:48:29.979Z,-1.36
2023-01-27T23:50:57.691Z,-1.44
2023-01-27T23:53:25.313Z,-1.45
2023-01-27T23:55:57.832Z,-1.44
2023-01-27T23:58:26.614Z,-1.40
